createdAt,value
2023-04-24T00:00:15.896Z,13.09
2023-04-24T00:03:04.438Z,13.05
2023-04-24T00:05:32.284Z,13.04
2023-04-24T00:08:00.078Z,12.98
2023-04-24T00:10:28.005Z,12.90
2023-04-24T00:12:55.837Z,12.83
2023-04-24T00:15:23.808Z,12.82
2023-04-24T00:17:51.845Z,12.88
2023-04-24T00:20:20.162Z,12.91
2023-04-24T00:22:47.964Z,12.86
2023-04-24T00:25:15.772Z,12.80
2023-04-24T00:27:43.433Z,12.79
2023-04-24T00:30:11.495Z,12.75
2023-04-24T00:32:39.263Z,12.68
2023-04-24T00:35:07.488Z,12.61
2023-04-24T00:37:35.279Z,12.64
2023-04-24T00:40:04.133Z,12.64
2023-04-24T00:42:32.292Z,12.60
2023-04-24T00:45:01.976Z,12.62
2023-04-24T00:47:29.980Z,12.62
2023-04-24T00:49:57.710Z,12.64
2023-04-24T00:52:26.595Z,12.63
2023-04-24T00:54:55.480Z,12.54
2023-04-24T00:57:24.867Z,12.50
2023-04-24T00:59:54.452Z,12.49
2023-04-24T01:02:25.508Z,12.52
2023-04-24T01:04:53.467Z,12.48
2023-04-24T01:07:22.245Z,12.46
2023-04-24T01:09:52.308Z,12.47
2023-04-24T01:12:20.778Z,12.47
2023-04-24T01:14:48.524Z,12.46
2023-04-24T01:17:16.658Z,12.45
2023-04-24T01:19:47.513Z,12.36
2023-04-24T01:22:15.871Z,12.23
2023-04-24T01:24:44.321Z,12.26
2023-04-24T01:27:12.805Z,12.24
2023-04-24T01:29:41.127Z,12.26
2023-04-24T01:32:09.236Z,12.28
2023-04-24T01:34:38.174Z,12.29
2023-04-24T01:37:06.504Z,12.26
2023-04-24T01:39:34.626Z,12.28
2023-04-24T01:42:05.268Z,12.29
2023-04-24T01:44:34.315Z,12.35
2023-04-24T01:47:03.003Z,12.33
2023-04-24T01:49:30.858Z,12.26
2023-04-24T01:51:58.749Z,12.20
2023-04-24T01:54:26.465Z,12.22
2023-04-24T01:56:54.199Z,12.19
2023-04-24T01:59:24.460Z,12.15
2023-04-24T02:01:52.245Z,12.12
2023-04-24T02:04:20.258Z,12.02
2023-04-24T02:06:48.176Z,11.98
2023-04-24T02:09:15.927Z,11.92
2023-04-24T02:11:43.703Z,11.85
2023-04-24T02:14:11.624Z,11.82
2023-04-24T02:16:39.555Z,11.75
2023-04-24T02:19:07.457Z,11.65
2023-04-24T02:21:35.556Z,11.58
2023-04-24T02:24:03.477Z,11.55
2023-04-24T02:26:32.960Z,11.51
2023-04-24T02:29:01.134Z,11.56
2023-04-24T02:31:29.976Z,11.49
2023-04-24T02:33:57.775Z,11.49
2023-04-24T02:36:25.566Z,11.50
2023-04-24T02:38:53.391Z,11.36
2023-04-24T02:41:21.168Z,11.25
2023-04-24T02:43:48.948Z,11.22
2023-04-24T02:46:16.862Z,11.19
2023-04-24T02:48:44.732Z,11.23
2023-04-24T02:51:13.058Z,11.13
2023-04-24T02:53:41.057Z,11.05
2023-04-24T02:56:09.335Z,10.99
2023-04-24T02:58:37.122Z,11.02
2023-04-24T03:01:05.835Z,11.03
2023-04-24T03:03:33.723Z,11.02
2023-04-24T03:06:01.697Z,11.05
2023-04-24T03:08:30.082Z,11.08
2023-04-24T03:10:57.866Z,11.09
2023-04-24T03:13:25.803Z,11.05
2023-04-24T03:15:54.544Z,11.05
2023-04-24T03:18:22.347Z,11.08
2023-04-24T03:20:51.174Z,11.05
2023-04-24T03:23:18.980Z,10.93
2023-04-24T03:25:46.778Z,10.84
2023-04-24T03:28:14.542Z,10.79
2023-04-24T03:30:42.489Z,10.75
2023-04-24T03:33:10.949Z,10.75
2023-04-24T03:35:38.823Z,10.80
2023-04-24T03:38:06.704Z,10.84
2023-04-24T03:40:34.717Z,10.89
2023-04-24T03:43:02.673Z,10.92
2023-04-24T03:45:30.561Z,10.93
2023-04-24T03:47:58.411Z,10.91
2023-04-24T03:50:27.807Z,10.88
2023-04-24T03:52:56.377Z,10.84
2023-04-24T03:55:24.128Z,10.82
2023-04-24T03:57:53.543Z,10.75
2023-04-24T04:00:22.142Z,10.79
2023-04-24T04:02:50.056Z,10.81
2023-04-24T04:05:18.242Z,10.80
2023-04-24T04:07:46.095Z,10.76
2023-04-24T04:10:13.957Z,10.76
2023-04-24T04:12:41.800Z,10.80
2023-04-24T04:15:09.906Z,10.85
2023-04-24T04:17:39.178Z,10.88
2023-04-24T04:20:10.563Z,10.90
2023-04-24T04:22:38.657Z,10.98
2023-04-24T04:25:08.586Z,10.98
2023-04-24T04:27:37.802Z,11.06
2023-04-24T04:43:27.291Z,11.51
2023-04-24T04:56:35.231Z,11.78
2023-04-24T04:59:27.123Z,11.80
2023-04-24T05:13:50.578Z,12.34
2023-04-24T05:16:17.699Z,12.35
2023-04-24T05:18:51.983Z,12.39
2023-04-24T05:21:26.608Z,12.40
2023-04-24T05:23:58.544Z,12.53
2023-04-24T05:28:05.954Z,13.28
2023-04-24T05:30:34.510Z,13.85
2023-04-24T05:33:02.546Z,14.58
2023-04-24T05:35:30.887Z,15.26
2023-04-24T05:37:58.688Z,15.82
2023-04-24T05:40:26.430Z,16.02
2023-04-24T05:42:54.435Z,15.84
2023-04-24T05:45:22.257Z,15.83
2023-04-24T05:48:08.772Z,16.11
2023-04-24T05:50:37.276Z,16.46
2023-04-24T05:55:27.144Z,16.85
2023-04-24T05:58:33.296Z,17.22
2023-04-24T06:01:49.411Z,17.79
2023-04-24T06:05:33.726Z,17.87
2023-04-24T06:09:00.252Z,17.54
2023-04-24T06:12:52.601Z,17.53
2023-04-24T06:15:22.813Z,17.61
2023-04-24T06:17:51.077Z,17.88
2023-04-24T06:20:21.510Z,18.31
2023-04-24T06:22:52.223Z,18.36
2023-04-24T06:25:20.277Z,18.35
2023-04-24T06:27:48.057Z,18.36
2023-04-24T06:30:24.103Z,18.47
2023-04-24T06:33:18.716Z,18.78
2023-04-24T06:35:47.663Z,19.27
2023-04-24T06:38:17.899Z,19.58
2023-04-24T06:40:46.392Z,19.84
2023-04-24T06:43:16.560Z,19.80
2023-04-24T06:45:45.277Z,19.98
2023-04-24T06:48:36.140Z,20.13
2023-04-24T06:51:07.843Z,20.25
2023-04-24T06:53:36.168Z,20.42
2023-04-24T06:56:05.075Z,21.09
2023-04-24T06:58:32.836Z,21.45
2023-04-24T07:01:00.626Z,21.71
2023-04-24T07:03:32.141Z,22.12
2023-04-24T07:06:00.251Z,22.43
2023-04-24T07:08:28.024Z,22.56
2023-04-24T07:10:57.088Z,22.96
2023-04-24T07:13:25.147Z,23.23
2023-04-24T07:15:55.200Z,22.95
2023-04-24T07:18:23.830Z,22.87
2023-04-24T07:20:54.458Z,22.74
2023-04-24T07:23:49.643Z,22.65
2023-04-24T07:55:41.310Z,23.83
2023-04-24T08:51:23.867Z,25.38
2023-04-24T09:18:44.311Z,26.33
2023-04-24T09:31:58.436Z,27.88
2023-04-24T09:34:28.102Z,28.02
2023-04-24T09:36:56.495Z,28.20
2023-04-24T09:39:24.542Z,27.96
2023-04-24T09:41:58.631Z,27.47
2023-04-24T09:44:28.611Z,27.18
2023-04-24T09:46:59.418Z,27.22
2023-04-24T09:49:28.047Z,27.23
2023-04-24T09:52:07.719Z,27.76
2023-04-24T09:54:37.869Z,28.65
2023-04-24T09:57:09.259Z,29.58
2023-04-24T09:59:43.580Z,30.15
2023-04-24T10:02:20.201Z,30.91
2023-04-24T10:05:00.304Z,31.36
2023-04-24T10:07:28.695Z,31.25
2023-04-24T10:09:56.675Z,31.63
2023-04-24T10:12:26.081Z,31.91
2023-04-24T10:14:54.424Z,31.83
2023-04-24T10:17:22.999Z,30.78
2023-04-24T10:19:51.266Z,30.14
2023-04-24T10:22:19.351Z,29.97
2023-04-24T10:24:49.639Z,29.46
2023-04-24T10:27:18.320Z,29.23
2023-04-24T10:29:50.071Z,29.09
2023-04-24T10:32:17.935Z,28.81
2023-04-24T10:34:48.405Z,28.35
2023-04-24T10:37:17.578Z,27.79
2023-04-24T10:39:49.760Z,27.71
2023-04-24T10:42:20.636Z,28.23
2023-04-24T10:44:50.374Z,28.67
2023-04-24T10:47:18.333Z,28.76
2023-04-24T10:49:49.115Z,28.94
2023-04-24T10:52:18.446Z,29.32
2023-04-24T10:54:50.610Z,29.30
2023-04-24T10:57:26.531Z,29.32
2023-04-24T11:00:19.321Z,29.62
2023-04-24T11:02:54.130Z,29.60
2023-04-24T11:05:23.914Z,29.51
2023-04-24T11:08:13.146Z,29.87
2023-04-24T11:10:45.694Z,29.73
2023-04-24T11:13:19.003Z,29.45
2023-04-24T11:22:19.838Z,29.84
2023-04-24T11:25:03.359Z,29.42
2023-04-24T11:27:49.505Z,29.17
2023-04-24T11:30:26.009Z,29.31
2023-04-24T11:33:08.254Z,29.38
2023-04-24T11:35:53.113Z,29.07
2023-04-24T11:38:32.493Z,28.65
2023-04-24T11:41:12.116Z,28.89
2023-04-24T11:43:50.102Z,28.59
2023-04-24T11:46:41.672Z,28.35
2023-04-24T11:49:14.628Z,28.62
2023-04-24T11:51:53.501Z,28.77
2023-04-24T11:54:25.069Z,28.64
2023-04-24T11:56:59.746Z,28.41
2023-04-24T11:59:29.119Z,28.45
2023-04-24T12:01:57.114Z,28.77
2023-04-24T12:04:26.001Z,29.21
2023-04-24T12:18:20.961Z,29.00
2023-04-24T12:20:50.100Z,28.91
2023-04-24T12:25:21.243Z,28.66
2023-04-24T12:28:17.138Z,28.40
2023-04-24T12:40:46.801Z,28.71
2023-04-24T12:43:17.907Z,28.34
2023-04-24T12:45:52.529Z,28.20
2023-04-24T12:48:22.979Z,28.24
2023-04-24T12:50:51.189Z,28.47
2023-04-24T12:53:43.542Z,28.49
2023-04-24T12:56:11.833Z,28.07
2023-04-24T12:58:44.844Z,26.71
2023-04-24T13:01:14.819Z,26.56
2023-04-24T13:03:46.515Z,26.20
2023-04-24T13:06:17.080Z,26.11
2023-04-24T13:08:48.990Z,25.58
2023-04-24T13:11:37.199Z,25.18
2023-04-24T13:14:06.042Z,25.07
2023-04-24T13:16:34.883Z,25.22
2023-04-24T13:19:03.346Z,25.56
2023-04-24T13:21:35.294Z,25.83
2023-04-24T13:24:06.040Z,25.70
2023-04-24T13:26:34.214Z,25.72
2023-04-24T13:29:02.117Z,25.64
2023-04-24T13:31:31.878Z,25.65
2023-04-24T13:33:59.879Z,25.87
2023-04-24T13:36:30.293Z,25.73
2023-04-24T13:39:00.418Z,24.88
2023-04-24T13:41:30.027Z,24.43
2023-04-24T13:43:58.018Z,24.79
2023-04-24T13:46:26.061Z,24.95
2023-04-24T13:48:56.504Z,25.10
2023-04-24T13:51:28.666Z,25.08
2023-04-24T13:53:56.848Z,25.24
2023-04-24T13:56:25.028Z,25.66
2023-04-24T13:58:57.306Z,24.90
2023-04-24T14:01:29.136Z,24.08
2023-04-24T14:03:58.564Z,24.07
2023-04-24T14:06:27.058Z,24.48
2023-04-24T14:08:55.312Z,25.16
2023-04-24T14:11:24.704Z,25.96
2023-04-24T14:13:55.986Z,25.40
2023-04-24T14:16:26.714Z,24.67
2023-04-24T14:18:56.219Z,24.64
2023-04-24T14:21:26.318Z,24.71
2023-04-24T14:23:54.302Z,24.67
2023-04-24T14:26:22.971Z,24.77
2023-04-24T14:28:58.056Z,24.94
2023-04-24T14:31:34.517Z,25.50
2023-04-24T14:34:02.803Z,26.40
2023-04-24T14:36:33.066Z,26.69
2023-04-24T14:39:02.176Z,27.43
2023-04-24T14:41:38.753Z,28.56
2023-04-24T14:44:09.108Z,30.23
2023-04-24T14:46:43.869Z,30.81
2023-04-24T14:49:15.752Z,31.43
2023-04-24T14:58:39.975Z,31.49
2023-04-24T15:01:11.887Z,31.07
2023-04-24T15:03:41.928Z,30.28
2023-04-24T15:06:17.003Z,29.15
2023-04-24T15:08:43.495Z,28.21
2023-04-24T15:11:13.579Z,28.49
2023-04-24T15:13:42.744Z,29.35
2023-04-24T15:16:09.452Z,30.08
2023-04-24T15:18:39.468Z,29.45
2023-04-24T15:21:06.369Z,28.19
2023-04-24T15:23:34.115Z,27.18
2023-04-24T15:26:03.446Z,26.33
2023-04-24T15:28:29.946Z,25.73
2023-04-24T15:35:26.366Z,24.11
2023-04-24T15:37:56.808Z,24.08
2023-04-24T15:40:29.720Z,24.48
2023-04-24T15:42:59.659Z,25.10
2023-04-24T15:45:28.321Z,25.96
2023-04-24T15:47:56.615Z,25.94
2023-04-24T15:50:24.932Z,25.20
2023-04-24T15:53:06.733Z,24.94
2023-04-24T15:55:37.612Z,24.87
2023-04-24T15:58:27.648Z,26.26
2023-04-24T16:00:55.711Z,27.99
2023-04-24T16:03:26.014Z,28.80
2023-04-24T16:05:54.126Z,29.25
2023-04-24T16:08:33.500Z,29.52
2023-04-24T16:11:01.874Z,29.74
2023-04-24T16:13:34.979Z,29.70
2023-04-24T16:16:03.163Z,29.46
2023-04-24T16:18:31.793Z,29.21
2023-04-24T16:21:01.443Z,28.90
2023-04-24T16:23:30.371Z,28.18
2023-04-24T16:26:00.891Z,27.29
2023-04-24T16:28:31.301Z,26.28
2023-04-24T16:31:17.376Z,25.40
2023-04-24T16:33:52.531Z,24.80
2023-04-24T16:36:25.000Z,24.38
2023-04-24T16:38:53.055Z,24.11
2023-04-24T16:41:21.928Z,23.77
2023-04-24T16:43:55.951Z,23.51
2023-04-24T16:46:30.276Z,23.36
2023-04-24T16:49:02.011Z,23.07
2023-04-24T16:51:36.112Z,22.86
2023-04-24T16:54:04.845Z,22.72
2023-04-24T16:56:34.077Z,22.58
2023-04-24T16:59:05.857Z,22.42
2023-04-24T17:01:35.373Z,22.29
2023-04-24T17:04:06.957Z,22.24
2023-04-24T17:06:35.650Z,22.17
2023-04-24T17:09:04.554Z,22.11
2023-04-24T17:11:33.335Z,22.09
2023-04-24T17:14:06.408Z,22.03
2023-04-24T17:16:34.541Z,21.95
2023-04-24T17:19:02.930Z,21.83
2023-04-24T17:21:31.919Z,21.71
2023-04-24T17:23:59.924Z,21.64
2023-04-24T17:26:28.772Z,21.55
2023-04-24T17:28:57.457Z,21.46
2023-04-24T17:31:25.282Z,21.40
2023-04-24T17:33:53.190Z,21.27
2023-04-24T17:36:21.045Z,21.12
2023-04-24T17:38:49.584Z,20.96
2023-04-24T17:41:17.936Z,20.82
2023-04-24T17:43:45.953Z,20.68
2023-04-24T17:46:14.128Z,20.54
2023-04-24T17:48:42.197Z,20.45
2023-04-24T17:51:10.819Z,20.30
2023-04-24T17:53:39.640Z,20.16
2023-04-24T17:56:07.838Z,20.01
2023-04-24T17:58:36.022Z,19.87
2023-04-24T18:01:03.971Z,19.73
2023-04-24T18:03:31.862Z,19.59
2023-04-24T18:06:04.264Z,19.47
2023-04-24T18:11:15.189Z,19.15
2023-04-24T18:13:43.219Z,19.00
2023-04-24T18:16:11.019Z,18.87
2023-04-24T18:18:39.010Z,18.76
2023-04-24T18:21:06.965Z,18.69
2023-04-24T18:23:35.608Z,18.65
2023-04-24T18:26:03.599Z,18.65
2023-04-24T18:28:34.773Z,18.64
2023-04-24T18:31:02.578Z,18.61
2023-04-24T18:33:31.780Z,18.54
2023-04-24T18:36:01.325Z,18.49
2023-04-24T18:38:29.587Z,18.42
2023-04-24T18:40:57.389Z,18.35
2023-04-24T18:43:25.672Z,18.25
2023-04-24T18:45:53.566Z,18.16
2023-04-24T18:48:22.296Z,18.10
2023-04-24T18:50:53.290Z,18.06
2023-04-24T18:53:21.854Z,18.09
2023-04-24T18:55:49.761Z,18.01
2023-04-24T18:58:18.273Z,17.97
2023-04-24T19:00:46.358Z,17.96
2023-04-24T19:03:16.129Z,17.89
2023-04-24T19:05:44.022Z,17.86
2023-04-24T19:08:12.933Z,17.83
2023-04-24T19:10:40.881Z,17.75
2023-04-24T19:13:10.140Z,17.74
2023-04-24T19:15:40.161Z,17.74
2023-04-24T19:18:07.899Z,17.76
2023-04-24T19:20:36.035Z,17.79
2023-04-24T19:23:03.817Z,17.83
2023-04-24T19:25:31.653Z,17.79
2023-04-24T19:27:59.427Z,17.72
2023-04-24T19:30:28.371Z,17.66
2023-04-24T19:32:56.393Z,17.67
2023-04-24T19:35:24.542Z,17.67
2023-04-24T19:41:56.872Z,17.59
2023-04-24T19:44:26.895Z,17.51
2023-04-24T19:46:53.276Z,17.40
2023-04-24T19:49:21.607Z,17.33
2023-04-24T19:51:48.386Z,17.30
2023-04-24T19:54:15.400Z,17.21
2023-04-24T19:56:42.367Z,17.18
2023-04-24T19:59:08.672Z,17.17
2023-04-24T20:01:35.212Z,17.18
2023-04-24T20:04:02.797Z,17.13
2023-04-24T20:06:30.141Z,17.05
2023-04-24T20:08:56.655Z,16.97
2023-04-24T20:11:23.110Z,16.92
2023-04-24T20:13:50.109Z,16.89
2023-04-24T20:16:17.386Z,16.84
2023-04-24T20:18:44.572Z,16.78
2023-04-24T20:21:10.932Z,16.73
2023-04-24T20:23:37.236Z,16.67
2023-04-24T20:26:04.268Z,16.60
2023-04-24T20:28:30.776Z,16.61
2023-04-24T20:30:58.429Z,16.62
2023-04-24T20:33:27.353Z,16.66
2023-04-24T20:35:54.020Z,16.66
2023-04-24T20:38:21.820Z,16.63
2023-04-24T20:43:18.286Z,16.57
2023-04-24T20:45:44.809Z,16.51
2023-04-24T20:48:12.238Z,16.41
2023-04-24T20:50:40.582Z,16.36
2023-04-24T20:53:09.037Z,16.29
2023-04-24T20:55:35.881Z,16.24
2023-04-24T20:58:02.334Z,16.19
2023-04-24T21:00:29.178Z,16.20
2023-04-24T21:02:55.708Z,16.13
2023-04-24T21:05:22.457Z,16.11
2023-04-24T21:07:51.145Z,16.11
2023-04-24T21:10:19.028Z,16.11
2023-04-24T21:12:45.447Z,16.10
2023-04-24T21:15:11.789Z,16.06
2023-04-24T21:17:39.174Z,16.01
2023-04-24T21:20:07.700Z,15.96
2023-04-24T21:22:35.290Z,15.96
2023-04-24T21:25:03.041Z,15.94
2023-04-24T21:27:30.073Z,15.92
2023-04-24T21:29:56.377Z,15.89
2023-04-24T21:32:22.864Z,15.90
2023-04-24T21:34:49.714Z,15.87
2023-04-24T21:37:16.229Z,15.80
2023-04-24T21:39:43.629Z,15.76
2023-04-24T21:42:12.215Z,15.78
2023-04-24T21:44:38.848Z,15.76
2023-04-24T21:47:05.672Z,15.69
2023-04-24T21:49:32.182Z,15.63
2023-04-24T21:51:58.602Z,15.57
2023-04-24T21:54:27.243Z,15.57
2023-04-24T21:56:53.710Z,15.51
2023-04-24T21:59:20.538Z,15.44
2023-04-24T22:01:46.940Z,15.35
2023-04-24T22:04:13.518Z,15.27
2023-04-24T22:06:40.201Z,15.25
2023-04-24T22:09:07.078Z,15.18
2023-04-24T22:11:33.557Z,15.13
2023-04-24T22:14:00.049Z,15.09
2023-04-24T22:16:27.750Z,15.08
2023-04-24T22:18:55.551Z,15.03
2023-04-24T22:21:22.154Z,14.97
2023-04-24T22:23:48.963Z,14.91
2023-04-24T22:26:15.667Z,14.83
2023-04-24T22:28:42.416Z,14.80
2023-04-24T22:31:10.257Z,14.79
2023-04-24T22:33:36.861Z,14.70
2023-04-24T22:36:03.594Z,14.65
2023-04-24T22:38:29.970Z,14.60
2023-04-24T22:40:56.324Z,14.55
2023-04-24T22:43:22.797Z,14.55
2023-04-24T22:45:49.501Z,14.53
2023-04-24T22:48:16.295Z,14.51
2023-04-24T22:50:42.685Z,14.47
2023-04-24T22:53:09.234Z,14.41
2023-04-24T22:55:35.826Z,14.38
2023-04-24T22:58:02.492Z,14.33
2023-04-24T23:00:29.261Z,14.32
2023-04-24T23:02:55.830Z,14.31
2023-04-24T23:05:24.521Z,14.27
2023-04-24T23:07:51.847Z,14.27
2023-04-24T23:10:18.243Z,14.25
2023-04-24T23:12:44.643Z,14.20
2023-04-24T23:15:13.874Z,14.19
2023-04-24T23:17:40.848Z,14.19
2023-04-24T23:20:09.791Z,14.15
2023-04-24T23:22:36.120Z,14.11
2023-04-24T23:25:02.558Z,14.11
2023-04-24T23:27:28.874Z,14.09
2023-04-24T23:29:55.270Z,14.04
2023-04-24T23:32:21.636Z,14.00
2023-04-24T23:34:48.882Z,13.98
2023-04-24T23:37:17.288Z,13.98
2023-04-24T23:39:45.315Z,13.98
2023-04-24T23:42:11.803Z,13.97
2023-04-24T23:44:38.659Z,13.98
2023-04-24T23:47:05.019Z,13.92
2023-04-24T23:49:31.295Z,13.94
2023-04-24T23:51:57.726Z,13.92
2023-04-24T23:54:25.653Z,13.91
2023-04-24T23:56:52.171Z,13.90
2023-04-24T23:59:20.910Z,13.88
